createdAt,value
2019-04-03T00:02:06.127Z,6.92
2019-04-03T00:04:35.574Z,7.05
2019-04-03T00:07:05.587Z,7.01
2019-04-03T00:09:36.830Z,6.91
2019-04-03T00:12:08.686Z,6.87
2019-04-03T00:14:42.428Z,6.82
2019-04-03T00:17:11.903Z,6.78
2019-04-03T00:19:41.419Z,6.70
2019-04-03T00:22:11.047Z,6.66
2019-04-03T00:24:40.604Z,6.61
2019-04-03T00:27:10.199Z,6.52
2019-04-03T00:29:39.685Z,6.45
2019-04-03T00:32:09.252Z,6.40
2019-04-03T00:34:38.820Z,6.35
2019-04-03T00:37:08.309Z,6.40
2019-04-03T00:39:38.398Z,6.30
2019-04-03T00:42:07.984Z,6.22
2019-04-03T00:44:37.398Z,6.14
2019-04-03T00:47:06.929Z,6.17
2019-04-03T00:49:36.479Z,6.08
2019-04-03T00:52:06.026Z,6.06
2019-04-03T00:54:35.453Z,6.14
2019-04-03T00:57:05.453Z,6.06
2019-04-03T00:59:35.104Z,5.92
2019-04-03T01:02:04.646Z,5.90
2019-04-03T01:04:34.169Z,5.93
2019-04-03T01:07:03.751Z,5.82
2019-04-03T01:09:33.284Z,5.81
2019-04-03T01:12:03.021Z,5.82
2019-04-03T01:14:32.626Z,5.81
2019-04-03T01:17:04.351Z,5.82
2019-04-03T01:19:36.110Z,5.78
2019-04-03T01:22:05.635Z,5.73
2019-04-03T01:24:38.807Z,5.69
2019-04-03T01:27:11.280Z,5.69
2019-04-03T01:29:42.340Z,5.79
2019-04-03T01:32:11.513Z,5.66
2019-04-03T01:34:41.074Z,5.62
2019-04-03T01:37:10.643Z,5.62
2019-04-03T01:39:40.169Z,5.49
2019-04-03T01:42:09.822Z,5.35
2019-04-03T01:44:39.398Z,5.45
2019-04-03T01:47:08.932Z,5.34
2019-04-03T01:49:38.444Z,5.15
2019-04-03T01:52:07.988Z,5.37
2019-04-03T01:54:37.525Z,5.24
2019-04-03T01:57:07.067Z,5.22
2019-04-03T01:59:37.584Z,5.16
2019-04-03T02:02:08.509Z,5.00
2019-04-03T02:04:38.733Z,4.85
2019-04-03T02:07:08.220Z,4.68
2019-04-03T02:09:37.842Z,4.64
2019-04-03T02:12:07.499Z,4.73
2019-04-03T02:14:37.081Z,4.86
2019-04-03T02:17:06.608Z,4.71
2019-04-03T02:19:36.280Z,4.67
2019-04-03T02:22:05.858Z,4.65
2019-04-03T02:24:35.455Z,4.81
2019-04-03T02:27:05.040Z,4.76
2019-04-03T02:29:34.829Z,4.85
2019-04-03T02:32:05.135Z,4.78
2019-04-03T02:34:36.124Z,4.91
2019-04-03T02:37:06.156Z,4.77
2019-04-03T02:39:35.769Z,4.63
2019-04-03T02:42:08.615Z,4.54
2019-04-03T02:44:37.144Z,4.55
2019-04-03T02:47:06.573Z,4.47
2019-04-03T02:49:36.196Z,4.58
2019-04-03T02:52:05.796Z,4.56
2019-04-03T02:54:38.278Z,4.73
2019-04-03T02:57:07.774Z,4.67
2019-04-03T02:59:37.574Z,4.60
2019-04-03T03:02:11.387Z,4.52
2019-04-03T03:04:39.032Z,4.42
2019-04-03T03:07:09.000Z,4.31
2019-04-03T03:09:39.684Z,4.21
2019-04-03T03:12:09.850Z,4.25
2019-04-03T03:14:40.380Z,4.22
2019-04-03T03:17:11.920Z,4.46
2019-04-03T03:19:42.045Z,4.50
2019-04-03T03:22:12.111Z,4.53
2019-04-03T03:24:41.864Z,4.43
2019-04-03T03:27:12.265Z,4.41
2019-04-03T03:29:41.791Z,4.35
2019-04-03T03:32:18.804Z,4.25
2019-04-03T03:34:53.160Z,4.14
2019-04-03T03:37:14.972Z,4.05
2019-04-03T03:39:44.743Z,4.04
2019-04-03T03:42:15.298Z,4.02
2019-04-03T03:44:46.310Z,3.60
2019-04-03T03:47:18.246Z,3.84
2019-04-03T03:49:50.066Z,3.78
2019-04-03T03:52:20.148Z,3.77
2019-04-03T03:54:51.547Z,3.86
2019-04-03T03:57:21.193Z,3.65
2019-04-03T03:59:52.649Z,3.65
2019-04-03T04:02:22.595Z,3.57
2019-04-03T04:04:52.460Z,3.39
2019-04-03T04:07:22.414Z,3.58
2019-04-03T04:09:53.680Z,3.47
2019-04-03T04:12:23.561Z,3.51
2019-04-03T04:14:56.412Z,3.51
2019-04-03T04:17:25.169Z,3.33
2019-04-03T04:19:54.734Z,3.55
2019-04-03T04:22:26.653Z,3.43
2019-04-03T04:24:57.139Z,3.31
2019-04-03T04:27:28.070Z,3.33
2019-04-03T04:29:58.737Z,3.43
2019-04-03T04:32:28.493Z,3.42
2019-04-03T04:34:58.066Z,3.36
2019-04-03T04:37:27.592Z,3.56
2019-04-03T04:39:57.965Z,3.58
2019-04-03T04:42:29.232Z,3.63
2019-04-03T04:44:59.037Z,3.67
2019-04-03T04:47:28.525Z,3.63
2019-04-03T04:49:58.034Z,3.82
2019-04-03T04:52:28.218Z,4.16
2019-04-03T04:54:57.860Z,4.28
2019-04-03T04:57:27.354Z,4.48
2019-04-03T04:59:56.773Z,4.63
2019-04-03T05:08:36.737Z,4.49
2019-04-03T05:11:07.546Z,5.07
2019-04-03T05:13:37.937Z,4.90
2019-04-03T05:16:07.856Z,5.27
2019-04-03T05:18:37.685Z,5.14
2019-04-03T05:21:12.162Z,5.37
2019-04-03T05:26:56.776Z,5.67
2019-04-03T05:29:26.262Z,5.91
2019-04-03T05:31:58.692Z,6.06
2019-04-03T05:34:28.503Z,5.73
2019-04-03T05:36:58.482Z,5.89
2019-04-03T05:39:28.224Z,6.03
2019-04-03T05:42:06.763Z,6.26
2019-04-03T05:44:36.534Z,6.65
2019-04-03T05:47:08.100Z,6.84
2019-04-03T05:49:37.575Z,6.85
2019-04-03T05:52:08.659Z,7.08
2019-04-03T05:54:39.356Z,7.14
2019-04-03T05:57:10.113Z,7.20
2019-04-03T05:59:44.561Z,7.31
2019-04-03T06:02:19.775Z,7.36
2019-04-03T06:04:46.925Z,7.48
2019-04-03T06:07:18.956Z,7.68
2019-04-03T06:09:53.105Z,7.67
2019-04-03T06:12:22.059Z,7.79
2019-04-03T06:14:52.100Z,7.89
2019-04-03T06:17:21.925Z,8.08
2019-04-03T06:19:54.212Z,7.89
2019-04-03T06:22:24.046Z,8.27
2019-04-03T06:24:55.842Z,8.26
2019-04-03T06:27:27.489Z,8.28
2019-04-03T06:29:57.730Z,8.41
2019-04-03T06:32:29.234Z,8.60
2019-04-03T06:34:59.870Z,8.84
2019-04-03T06:37:29.597Z,9.02
2019-04-03T06:40:02.350Z,9.06
2019-04-03T06:42:31.008Z,9.23
2019-04-03T06:45:01.036Z,9.32
2019-04-03T06:47:32.214Z,9.29
2019-04-03T06:50:02.256Z,9.33
2019-04-03T06:52:33.691Z,9.65
2019-04-03T06:55:04.824Z,9.64
2019-04-03T06:57:38.979Z,9.80
2019-04-03T07:00:09.419Z,10.09
2019-04-03T07:02:39.416Z,9.90
2019-04-03T07:05:42.903Z,10.00
2019-04-03T07:08:27.649Z,10.34
2019-04-03T07:10:54.905Z,10.45
2019-04-03T07:13:29.558Z,10.52
2019-04-03T07:16:03.799Z,10.55
2019-04-03T07:18:37.005Z,10.08
2019-04-03T07:21:07.873Z,10.40
2019-04-03T07:23:38.191Z,10.56
2019-04-03T07:26:07.834Z,10.93
2019-04-03T07:28:42.410Z,11.06
2019-04-03T07:31:12.095Z,11.27
2019-04-03T07:33:41.887Z,10.95
2019-04-03T07:36:13.429Z,11.10
2019-04-03T07:38:43.835Z,11.17
2019-04-03T07:41:14.055Z,11.06
2019-04-03T07:43:44.927Z,11.09
2019-04-03T07:46:16.656Z,11.44
2019-04-03T07:48:47.519Z,11.29
2019-04-03T07:51:17.633Z,11.20
2019-04-03T07:53:50.223Z,10.80
2019-04-03T07:56:19.529Z,11.24
2019-04-03T07:58:50.653Z,11.55
2019-04-03T08:01:20.359Z,11.33
2019-04-03T08:03:53.275Z,11.37
2019-04-03T08:06:23.848Z,11.63
2019-04-03T08:09:06.960Z,11.84
2019-04-03T08:11:26.852Z,12.06
2019-04-03T08:13:56.809Z,12.00
2019-04-03T08:16:27.123Z,11.98
2019-04-03T08:18:58.673Z,12.02
2019-04-03T08:21:30.875Z,12.17
2019-04-03T08:24:02.220Z,11.74
2019-04-03T08:26:32.548Z,11.87
2019-04-03T08:29:06.658Z,12.00
2019-04-03T08:31:36.959Z,12.03
2019-04-03T08:34:15.855Z,12.08
2019-04-03T08:36:39.914Z,12.09
2019-04-03T08:39:09.838Z,12.11
2019-04-03T08:41:39.579Z,12.43
2019-04-03T08:44:09.313Z,12.67
2019-04-03T08:46:44.090Z,12.65
2019-04-03T08:49:21.338Z,12.88
2019-04-03T08:51:54.090Z,12.91
2019-04-03T08:54:23.088Z,13.17
2019-04-03T08:56:52.846Z,12.98
2019-04-03T08:59:22.649Z,12.90
2019-04-03T09:01:55.097Z,12.76
2019-04-03T09:04:23.659Z,13.00
2019-04-03T09:06:54.222Z,13.18
2019-04-03T09:09:24.654Z,13.37
2019-04-03T09:11:56.062Z,13.33
2019-04-03T09:14:26.212Z,13.31
2019-04-03T09:16:57.046Z,13.29
2019-04-03T09:19:27.105Z,13.51
2019-04-03T09:21:56.980Z,13.60
2019-04-03T09:24:30.662Z,13.76
2019-04-03T09:27:00.743Z,13.90
2019-04-03T09:29:30.676Z,13.94
2019-04-03T09:32:00.346Z,14.06
2019-04-03T09:34:32.157Z,14.02
2019-04-03T09:37:05.843Z,14.06
2019-04-03T09:39:34.816Z,14.15
2019-04-03T09:42:04.705Z,14.04
2019-04-03T09:44:34.348Z,14.25
2019-04-03T09:47:05.276Z,14.38
2019-04-03T09:49:34.968Z,14.51
2019-04-03T09:52:04.825Z,14.56
2019-04-03T09:54:34.478Z,14.64
2019-04-03T09:57:05.293Z,14.79
2019-04-03T09:59:37.411Z,15.00
2019-04-03T10:02:07.010Z,14.82
2019-04-03T10:04:36.651Z,14.86
2019-04-03T10:07:06.318Z,15.19
2019-04-03T10:09:38.479Z,15.36
2019-04-03T10:12:07.172Z,15.11
2019-04-03T10:14:37.069Z,14.65
2019-04-03T10:17:07.316Z,14.21
2019-04-03T10:19:37.789Z,14.31
2019-04-03T10:22:07.878Z,14.58
2019-04-03T10:24:40.497Z,14.70
2019-04-03T10:27:11.117Z,14.75
2019-04-03T10:29:41.959Z,14.91
2019-04-03T10:32:12.686Z,14.96
2019-04-03T10:34:42.431Z,15.18
2019-04-03T10:37:14.778Z,15.48
2019-04-03T10:39:44.701Z,15.36
2019-04-03T10:42:14.677Z,15.40
2019-04-03T10:44:45.518Z,15.55
2019-04-03T10:47:15.098Z,15.71
2019-04-03T10:49:44.897Z,16.04
2019-04-03T10:52:15.161Z,16.03
2019-04-03T10:54:44.988Z,16.07
2019-04-03T10:57:14.561Z,15.97
2019-04-03T10:59:44.363Z,15.71
2019-04-03T11:02:14.140Z,15.79
2019-04-03T11:04:44.153Z,16.02
2019-04-03T11:07:13.898Z,15.84
2019-04-03T11:09:55.752Z,15.71
2019-04-03T11:12:32.461Z,15.84
2019-04-03T11:15:11.523Z,16.12
2019-04-03T11:26:35.097Z,16.32
2019-04-03T11:29:20.828Z,15.91
2019-04-03T11:31:50.584Z,15.87
2019-04-03T11:34:20.328Z,16.27
2019-04-03T11:36:52.099Z,16.42
2019-04-03T11:39:22.075Z,16.62
2019-04-03T11:41:54.515Z,16.37
2019-04-03T11:44:32.848Z,16.44
2019-04-03T11:47:24.122Z,16.48
2019-04-03T11:49:40.061Z,16.29
2019-04-03T11:52:09.949Z,16.62
2019-04-03T11:54:40.028Z,16.60
2019-04-03T11:57:10.546Z,16.79
2019-04-03T11:59:55.402Z,17.05
2019-04-03T12:02:14.323Z,17.44
2019-04-03T12:04:45.690Z,17.08
2019-04-03T12:07:15.377Z,17.27
2019-04-03T12:09:45.054Z,17.29
2019-04-03T12:12:15.289Z,17.24
2019-04-03T12:14:45.133Z,17.13
2019-04-03T12:17:14.914Z,17.06
2019-04-03T12:19:47.697Z,17.14
2019-04-03T12:22:22.079Z,16.91
2019-04-03T12:24:53.465Z,16.88
2019-04-03T12:27:26.256Z,17.03
2019-04-03T12:29:55.661Z,16.73
2019-04-03T12:32:36.597Z,16.53
2019-04-03T12:34:59.014Z,16.60
2019-04-03T12:37:31.360Z,16.86
2019-04-03T12:40:24.846Z,16.93
2019-04-03T12:43:35.628Z,16.59
2019-04-03T12:45:36.751Z,16.48
2019-04-03T12:48:12.372Z,16.67
2019-04-03T12:50:45.776Z,16.51
2019-04-03T12:53:20.279Z,16.64
2019-04-03T12:56:01.982Z,16.51
2019-04-03T12:58:35.819Z,16.46
2019-04-03T13:03:11.877Z,16.67
2019-04-03T13:04:19.683Z,16.76
2019-04-03T13:06:50.991Z,17.22
2019-04-03T13:09:24.634Z,17.17
2019-04-03T13:11:54.301Z,16.89
2019-04-03T13:14:27.014Z,16.96
2019-04-03T13:16:56.183Z,17.04
2019-04-03T13:19:25.899Z,17.07
2019-04-03T13:25:21.433Z,16.98
2019-04-03T13:33:23.613Z,16.87
2019-04-03T13:36:11.906Z,16.70
2019-04-03T13:38:43.496Z,16.53
2019-04-03T13:41:17.975Z,16.67
2019-04-03T13:47:13.191Z,16.60
2019-04-03T13:49:56.665Z,16.51
2019-04-03T13:55:24.317Z,16.50
2019-04-03T13:57:55.875Z,16.45
2019-04-03T14:01:19.189Z,16.16
2019-04-03T14:03:04.181Z,16.31
2019-04-03T14:05:55.664Z,16.31
2019-04-03T14:08:36.242Z,16.30
2019-04-03T14:15:19.235Z,15.74
2019-04-03T14:18:27.654Z,15.57
2019-04-03T14:23:10.353Z,15.36
2019-04-03T14:25:40.136Z,15.31
2019-04-03T14:28:11.357Z,15.29
2019-04-03T14:30:43.715Z,15.21
2019-04-03T14:33:12.359Z,15.14
2019-04-03T14:35:50.408Z,15.13
2019-04-03T14:38:13.242Z,15.08
2019-04-03T14:40:43.513Z,15.08
2019-04-03T14:43:14.288Z,15.07
2019-04-03T14:45:45.154Z,14.99
2019-04-03T14:48:15.030Z,15.02
2019-04-03T14:50:45.845Z,14.86
2019-04-03T14:53:15.956Z,14.85
2019-04-03T14:55:49.425Z,14.90
2019-04-03T14:58:17.779Z,14.94
2019-04-03T15:00:48.795Z,14.92
2019-04-03T15:03:18.685Z,14.94
2019-04-03T15:05:48.308Z,15.00
2019-04-03T15:08:18.255Z,14.93
2019-04-03T15:10:50.038Z,14.82
2019-04-03T15:13:19.114Z,14.85
2019-04-03T15:15:48.796Z,14.79
2019-04-03T15:18:18.636Z,14.76
2019-04-03T15:20:49.221Z,14.75
2019-04-03T15:23:19.894Z,14.65
2019-04-03T15:25:52.166Z,14.57
2019-04-03T15:28:20.788Z,14.43
2019-04-03T15:30:50.555Z,14.38
2019-04-03T15:33:23.178Z,14.26
2019-04-03T15:35:51.282Z,14.42
2019-04-03T15:38:20.979Z,14.33
2019-04-03T15:40:50.572Z,14.41
2019-04-03T15:43:20.242Z,14.25
2019-04-03T15:45:49.776Z,14.08
2019-04-03T15:48:21.458Z,14.04
2019-04-03T15:50:50.562Z,14.10
2019-04-03T15:53:20.704Z,14.20
2019-04-03T15:55:52.600Z,14.02
2019-04-03T15:58:22.834Z,13.93
2019-04-03T16:00:54.677Z,13.86
2019-04-03T16:03:29.247Z,13.91
2019-04-03T16:05:58.797Z,13.75
2019-04-03T16:08:29.975Z,13.66
2019-04-03T16:10:59.580Z,13.58
2019-04-03T16:13:29.717Z,13.67
2019-04-03T16:16:00.810Z,13.55
2019-04-03T16:18:30.745Z,13.56
2019-04-03T16:21:00.508Z,13.41
2019-04-03T16:23:30.749Z,13.38
2019-04-03T16:26:00.445Z,13.19
2019-04-03T16:28:33.273Z,13.14
2019-04-03T16:31:01.601Z,13.21
2019-04-03T16:33:31.376Z,13.05
2019-04-03T16:36:02.479Z,12.97
2019-04-03T16:38:32.512Z,12.92
2019-04-03T16:41:02.537Z,12.78
2019-04-03T16:43:32.341Z,12.69
2019-04-03T16:46:01.841Z,12.47
2019-04-03T16:48:31.486Z,12.49
2019-04-03T16:51:01.576Z,12.44
2019-04-03T16:53:31.219Z,12.52
2019-04-03T16:56:01.089Z,12.27
2019-04-03T16:58:31.052Z,12.15
2019-04-03T17:01:00.493Z,12.19
2019-04-03T17:03:32.054Z,12.04
2019-04-03T17:06:01.462Z,11.98
2019-04-03T17:08:30.970Z,11.93
2019-04-03T17:11:00.481Z,11.62
2019-04-03T17:13:29.981Z,11.60
2019-04-03T17:15:59.658Z,11.43
2019-04-03T17:18:29.249Z,11.41
2019-04-03T17:20:58.854Z,11.57
2019-04-03T17:23:28.826Z,11.52
2019-04-03T17:25:59.271Z,11.35
2019-04-03T17:28:29.005Z,11.36
2019-04-03T17:30:58.665Z,11.25
2019-04-03T17:33:29.578Z,11.00
2019-04-03T17:35:59.086Z,11.05
2019-04-03T17:38:31.453Z,10.93
2019-04-03T17:40:59.828Z,10.85
2019-04-03T17:43:29.457Z,10.98
2019-04-03T17:45:58.967Z,10.81
2019-04-03T17:48:28.399Z,10.82
2019-04-03T17:50:58.049Z,10.65
2019-04-03T17:53:27.665Z,10.65
2019-04-03T17:55:57.185Z,10.61
2019-04-03T17:58:26.784Z,10.50
2019-04-03T18:00:56.375Z,10.41
2019-04-03T18:03:26.054Z,10.36
2019-04-03T18:05:56.908Z,10.30
2019-04-03T18:11:42.835Z,10.23
2019-04-03T18:14:21.861Z,10.24
2019-04-03T18:17:13.190Z,10.25
2019-04-03T18:19:42.626Z,10.18
2019-04-03T18:22:14.146Z,10.10
2019-04-03T18:24:45.035Z,10.03
2019-04-03T18:27:18.041Z,9.94
2019-04-03T18:30:02.383Z,9.99
2019-04-03T18:32:33.558Z,10.01
2019-04-03T18:35:08.416Z,9.95
2019-04-03T18:37:41.889Z,9.82
2019-04-03T18:40:13.980Z,9.84
2019-04-03T18:42:43.301Z,9.73
2019-04-03T18:45:24.601Z,9.51
2019-04-03T18:47:47.230Z,9.46
2019-04-03T18:50:17.258Z,9.40
2019-04-03T18:52:50.156Z,9.32
2019-04-03T18:55:25.994Z,9.43
2019-04-03T18:57:59.572Z,9.53
2019-04-03T19:00:30.737Z,9.48
2019-04-03T19:03:01.768Z,9.42
2019-04-03T19:05:34.566Z,9.36
2019-04-03T19:08:13.027Z,9.27
2019-04-03T19:10:37.194Z,9.30
2019-04-03T19:13:06.953Z,9.48
2019-04-03T19:15:39.646Z,9.42
2019-04-03T19:18:19.432Z,9.42
2019-04-03T19:20:41.877Z,9.39
2019-04-03T19:23:11.652Z,9.42
2019-04-03T19:25:41.412Z,9.23
2019-04-03T19:28:11.042Z,9.12
2019-04-03T19:30:41.610Z,8.97
2019-04-03T19:33:12.063Z,9.09
2019-04-03T19:35:42.567Z,8.97
2019-04-03T19:38:13.373Z,9.04
2019-04-03T19:40:43.132Z,8.89
2019-04-03T19:43:14.668Z,8.89
2019-04-03T19:45:44.318Z,8.88
2019-04-03T19:48:13.903Z,8.78
2019-04-03T19:50:43.566Z,8.68
2019-04-03T19:53:14.043Z,8.72
2019-04-03T19:55:43.867Z,8.68
2019-04-03T19:58:13.511Z,8.59
2019-04-03T20:00:43.171Z,8.56
2019-04-03T20:03:14.092Z,8.56
2019-04-03T20:05:44.598Z,8.58
2019-04-03T20:08:14.416Z,8.60
2019-04-03T20:10:44.188Z,8.53
2019-04-03T20:13:28.438Z,8.43
2019-04-03T20:16:10.607Z,8.36
2019-04-03T20:18:53.028Z,8.30
2019-04-03T20:21:25.794Z,8.24
2019-04-03T20:24:12.525Z,8.26
2019-04-03T20:26:41.809Z,8.26
2019-04-03T20:29:11.431Z,8.09
2019-04-03T20:31:41.128Z,8.04
2019-04-03T20:34:13.020Z,7.96
2019-04-03T20:36:54.967Z,7.92
2019-04-03T20:39:29.056Z,7.76
2019-04-03T20:41:59.485Z,7.67
2019-04-03T20:44:29.000Z,7.59
2019-04-03T20:46:59.171Z,7.66
2019-04-03T20:49:29.841Z,7.72
2019-04-03T20:51:59.228Z,7.72
2019-04-03T20:54:28.724Z,7.56
2019-04-03T20:57:02.150Z,7.52
2019-04-03T20:59:30.224Z,7.52
2019-04-03T21:01:59.999Z,7.52
2019-04-03T21:04:29.887Z,7.49
2019-04-03T21:06:59.391Z,7.44
2019-04-03T21:09:30.435Z,7.57
2019-04-03T21:12:00.178Z,7.45
2019-04-03T21:14:29.797Z,7.38
2019-04-03T21:17:02.920Z,7.43
2019-04-03T21:19:32.475Z,6.99
2019-04-03T21:22:01.891Z,6.87
2019-04-03T21:24:34.167Z,7.12
2019-04-03T21:27:02.720Z,6.91
2019-04-03T21:29:32.333Z,6.33
2019-04-03T21:32:01.939Z,6.40
2019-04-03T21:34:32.827Z,6.53
2019-04-03T21:37:02.715Z,6.57
2019-04-03T21:39:33.785Z,6.60
2019-04-03T21:42:03.805Z,6.88
2019-04-03T21:44:34.964Z,6.59
2019-04-03T21:47:04.667Z,6.46
2019-04-03T21:49:34.352Z,6.41
2019-04-03T21:52:26.456Z,6.55
2019-04-03T21:54:59.992Z,6.45
2019-04-03T21:57:32.495Z,6.62
2019-04-03T22:00:05.939Z,6.58
2019-04-03T22:02:57.741Z,6.46
2019-04-03T22:05:27.426Z,6.47
2019-04-03T22:07:59.844Z,6.55
2019-04-03T22:10:32.787Z,6.70
2019-04-03T22:13:10.470Z,6.63
2019-04-03T22:15:40.185Z,6.50
2019-04-03T22:18:14.364Z,6.40
2019-04-03T22:20:44.006Z,6.46
2019-04-03T22:23:14.868Z,6.66
2019-04-03T22:25:44.807Z,6.47
2019-04-03T22:28:14.486Z,6.48
2019-04-03T22:30:44.102Z,6.53
2019-04-03T22:33:25.914Z,6.48
2019-04-03T22:36:03.303Z,6.36
2019-04-03T22:38:37.262Z,6.53
2019-04-03T22:41:07.465Z,6.71
2019-04-03T22:43:37.062Z,6.77
2019-04-03T22:46:07.264Z,6.88
2019-04-03T22:48:36.933Z,6.88
2019-04-03T22:51:06.927Z,6.98
2019-04-03T22:53:37.148Z,6.94
2019-04-03T22:56:06.856Z,6.94
2019-04-03T22:58:36.655Z,6.93
2019-04-03T23:01:06.804Z,7.06
2019-04-03T23:03:44.899Z,7.09
2019-04-03T23:06:14.557Z,6.94
2019-04-03T23:08:44.126Z,6.92
2019-04-03T23:11:13.709Z,7.02
2019-04-03T23:13:43.423Z,7.12
2019-04-03T23:16:13.068Z,6.94
2019-04-03T23:18:42.712Z,6.85
2019-04-03T23:21:12.354Z,6.91
2019-04-03T23:23:41.920Z,6.91
2019-04-03T23:26:11.612Z,6.79
2019-04-03T23:28:41.167Z,6.80
2019-04-03T23:31:11.181Z,6.86
2019-04-03T23:33:42.130Z,6.79
2019-04-03T23:36:11.731Z,6.83
2019-04-03T23:38:42.672Z,6.76
2019-04-03T23:41:12.338Z,6.70
2019-04-03T23:43:42.099Z,6.79
2019-04-03T23:46:12.817Z,7.02
2019-04-03T23:48:42.980Z,6.86
2019-04-03T23:51:22.638Z,6.73
2019-04-03T23:53:43.989Z,6.54
2019-04-03T23:56:13.642Z,6.67
2019-04-03T23:58:43.350Z,6.56
